Time;durP1;ratioP1;P1;durP2;ratioP2;P2;SDS_P1;SDS_P2;PMS_P1;PMS_P2;Temp;Humidity;BMP_temperature;BMP_pressure;BME280_temperature;BME280_humidity;BME280_pressure;Samples;Min_cycle;Max_cycle;Signal;HPM_P1;HPM_P2
2023/06/09 00:02:13;;;;;;;6.50;6.30;;;15.30;99.90;;;;;;5103206;27;20507;-66
2023/06/09 00:04:41;;;;;;;6.67;6.47;;;15.20;99.90;;;;;;5109702;27;20997;-67
2023/06/09 00:07:08;;;;;;;7.07;6.87;;;15.30;99.90;;;;;;5122644;27;20476;-68
2023/06/09 00:09:35;;;;;;;6.70;6.50;;;15.20;99.90;;;;;;5099290;27;20477;-67
2023/06/09 00:12:02;;;;;;;6.50;6.30;;;15.20;99.90;;;;;;5101013;27;20557;-68
2023/06/09 00:14:30;;;;;;;6.80;6.60;;;15.20;99.90;;;;;;5106397;27;20469;-68
2023/06/09 00:16:59;;;;;;;6.80;6.60;;;15.20;99.90;;;;;;5109596;27;20488;-68
2023/06/09 00:19:29;;;;;;;6.60;6.40;;;15.20;99.90;;;;;;5113669;28;20566;-68
2023/06/09 00:21:57;;;;;;;6.77;6.57;;;15.10;99.90;;;;;;5110363;27;20466;-67
2023/06/09 00:24:24;;;;;;;6.33;6.13;;;15.00;99.90;;;;;;5099672;27;20468;-67
2023/06/09 00:26:52;;;;;;;6.33;6.13;;;15.00;99.90;;;;;;5101994;28;20540;-66
2023/06/09 00:29:21;;;;;;;6.80;6.60;;;14.90;99.90;;;;;;5109553;28;20468;-67
2023/06/09 00:31:48;;;;;;;6.50;6.30;;;14.90;99.90;;;;;;5111959;28;20460;-68
2023/06/09 00:34:16;;;;;;;6.00;5.80;;;15.00;99.90;;;;;;5115533;28;20461;-66
2023/06/09 00:36:43;;;;;;;6.13;5.93;;;14.90;99.90;;;;;;5099186;28;20477;-67
2023/06/09 00:39:10;;;;;;;7.77;7.47;;;14.70;99.90;;;;;;5099188;28;20578;-67
2023/06/09 00:41:39;;;;;;;6.03;5.83;;;14.70;99.90;;;;;;5115163;28;20461;-68
2023/06/09 00:44:07;;;;;;;5.33;5.23;;;14.70;99.90;;;;;;5099739;28;20456;-67
2023/06/09 00:46:35;;;;;;;5.30;5.20;;;14.70;99.90;;;;;;5107603;28;20486;-67
2023/06/09 00:49:03;;;;;;;7.00;6.73;;;14.60;99.90;;;;;;5102065;28;20462;-67
2023/06/09 00:51:34;;;;;;;5.80;5.60;;;14.60;99.90;;;;;;5099691;28;20457;-67
2023/06/09 00:54:01;;;;;;;5.93;5.73;;;14.60;99.90;;;;;;5101592;28;20485;-68
2023/06/09 00:56:29;;;;;;;6.20;6.00;;;14.60;99.90;;;;;;5098552;28;20457;-68
2023/06/09 00:58:56;;;;;;;5.73;5.53;;;14.50;99.90;;;;;;5106688;28;20476;-68
2023/06/09 01:01:23;;;;;;;6.00;5.80;;;14.50;99.90;;;;;;5098600;28;20461;-67
2023/06/09 01:03:51;;;;;;;7.20;6.90;;;14.50;99.90;;;;;;5098298;28;20458;-67
2023/06/09 01:06:30;;;;;;;5.97;5.77;;;14.60;99.90;;;;;;5111527;28;20464;-68
2023/06/09 01:09:03;;;;;;;6.60;6.40;;;14.70;99.90;;;;;;5095869;28;20815;-68
2023/06/09 01:11:34;;;;;;;5.03;4.93;;;14.70;99.90;;;;;;5094729;28;20462;-67
2023/06/09 01:14:08;;;;;;;4.80;4.70;;;14.80;99.90;;;;;;5113943;27;20464;-68
2023/06/09 01:16:42;;;;;;;8.00;6.07;;;14.70;99.90;;;;;;5118047;27;20502;-67
2023/06/09 01:19:24;;;;;;;4.50;4.40;;;14.70;99.90;;;;;;5111029;27;20459;-67
2023/06/09 01:21:54;;;;;;;4.83;4.73;;;14.70;99.90;;;;;;5111607;27;20460;-67
2023/06/09 01:24:35;;;;;;;4.60;4.50;;;14.70;99.90;;;;;;5099757;27;20458;-67
2023/06/09 01:27:05;;;;;;;5.00;4.90;;;14.70;99.90;;;;;;5115199;27;20578;-68
2023/06/09 01:29:33;;;;;;;5.10;4.93;;;14.70;99.90;;;;;;5097695;27;20815;-67
2023/06/09 01:32:02;;;;;;;5.00;4.90;;;14.50;99.90;;;;;;5114681;27;20453;-67
2023/06/09 01:34:29;;;;;;;5.20;5.10;;;14.40;99.90;;;;;;5115725;27;20541;-67
2023/06/09 01:36:57;;;;;;;5.10;5.00;;;14.40;99.90;;;;;;5109592;27;20473;-67
2023/06/09 01:39:26;;;;;;;5.03;4.93;;;14.40;99.90;;;;;;5111870;27;20479;-67
2023/06/09 01:41:52;;;;;;;5.20;5.10;;;14.30;99.90;;;;;;5106396;27;20499;-67
2023/06/09 01:44:21;;;;;;;5.53;5.33;;;14.30;99.90;;;;;;5109558;27;20460;-67
2023/06/09 01:46:48;;;;;;;5.57;5.37;;;14.20;99.90;;;;;;5123740;27;20460;-66
2023/06/09 01:49:24;;;;;;;5.67;5.47;;;14.30;99.90;;;;;;5099021;27;20463;-67
2023/06/09 01:51:53;;;;;;;5.17;5.07;;;14.40;99.90;;;;;;5101612;27;20961;-66
2023/06/09 01:54:26;;;;;;;5.40;5.20;;;14.50;99.90;;;;;;5102920;27;21265;-67
2023/06/09 01:56:59;;;;;;;4.90;4.80;;;14.50;99.90;;;;;;5113567;27;20828;-67
2023/06/09 01:59:36;;;;;;;5.60;5.43;;;14.50;99.90;;;;;;5099689;27;20470;-67
2023/06/09 02:02:05;;;;;;;6.03;5.83;;;14.40;99.90;;;;;;5110371;27;20522;-67
2023/06/09 02:04:33;;;;;;;6.50;6.30;;;14.50;99.90;;;;;;5115963;27;20457;-67
2023/06/09 02:07:00;;;;;;;6.17;5.97;;;14.50;99.90;;;;;;5101023;27;20485;-67
2023/06/09 02:09:28;;;;;;;6.30;6.10;;;14.40;99.90;;;;;;5115261;27;20467;-68
2023/06/09 02:11:55;;;;;;;6.60;6.40;;;14.40;99.90;;;;;;5116166;27;20560;-68
2023/06/09 02:14:23;;;;;;;7.13;6.93;;;14.40;99.90;;;;;;5100718;27;20467;-67
2023/06/09 02:16:53;;;;;;;7.43;7.23;;;14.40;99.90;;;;;;5103833;27;20504;-67
2023/06/09 02:19:20;;;;;;;7.80;7.60;;;14.40;99.90;;;;;;5115748;27;20461;-68
2023/06/09 02:21:47;;;;;;;7.80;7.57;;;14.40;99.90;;;;;;5105703;27;20467;-67
2023/06/09 02:24:15;;;;;;;8.10;7.80;;;14.40;99.90;;;;;;5101714;27;20472;-67
2023/06/09 02:26:41;;;;;;;8.23;7.93;;;14.40;99.90;;;;;;5117167;27;20866;-68
2023/06/09 02:29:09;;;;;;;7.93;7.67;;;14.40;99.90;;;;;;5125097;27;20475;-67
2023/06/09 02:31:36;;;;;;;10.53;9.97;;;14.50;99.90;;;;;;5105227;27;20456;-68
2023/06/09 02:34:04;;;;;;;7.47;7.27;;;14.50;99.90;;;;;;5103031;27;20492;-67
2023/06/09 02:36:32;;;;;;;8.07;7.77;;;14.70;99.90;;;;;;5100217;27;20484;-67
2023/06/09 02:39:00;;;;;;;7.50;7.30;;;14.80;99.90;;;;;;5119534;27;20467;-67
2023/06/09 02:41:27;;;;;;;8.63;8.33;;;14.80;99.90;;;;;;5110389;27;20452;-67
2023/06/09 02:43:55;;;;;;;8.37;8.07;;;14.80;99.90;;;;;;5116349;27;20514;-67
2023/06/09 02:46:22;;;;;;;9.30;8.83;;;14.90;99.90;;;;;;5114633;27;20461;-68
2023/06/09 02:48:50;;;;;;;7.93;7.63;;;15.00;99.90;;;;;;5094040;27;20485;-67
2023/06/09 02:51:19;;;;;;;8.57;8.27;;;15.20;99.90;;;;;;5112931;27;20575;-67
2023/06/09 02:53:46;;;;;;;7.80;7.50;;;15.30;99.90;;;;;;5104498;27;20867;-67
2023/06/09 02:56:13;;;;;;;7.53;7.23;;;15.30;99.90;;;;;;5106107;27;20461;-67
2023/06/09 02:58:40;;;;;;;7.43;7.13;;;15.40;99.90;;;;;;5099434;27;20469;-68
2023/06/09 03:01:08;;;;;;;8.30;7.90;;;15.50;99.90;;;;;;5106712;27;20464;-67
2023/06/09 03:03:38;;;;;;;8.27;7.80;;;15.50;99.90;;;;;;5121822;27;20544;-68
2023/06/09 03:06:07;;;;;;;7.10;6.90;;;15.50;99.90;;;;;;5123431;27;20877;-67
2023/06/09 03:08:36;;;;;;;7.43;7.23;;;15.50;99.90;;;;;;5113771;27;20488;-67
2023/06/09 03:11:04;;;;;;;9.77;9.07;;;15.50;99.90;;;;;;5108171;27;20822;-68
2023/06/09 03:13:30;;;;;;;8.17;7.87;;;15.50;99.90;;;;;;5113093;27;20686;-68
2023/06/09 03:15:58;;;;;;;7.97;7.67;;;15.60;99.90;;;;;;5100337;27;20614;-67
2023/06/09 03:18:26;;;;;;;9.23;8.83;;;15.60;99.90;;;;;;5115798;27;20467;-66
2023/06/09 03:20:53;;;;;;;7.10;6.90;;;15.60;99.90;;;;;;5115808;27;20464;-67
2023/06/09 03:23:21;;;;;;;8.80;8.40;;;15.70;99.90;;;;;;5117089;27;20893;-66
2023/06/09 03:25:51;;;;;;;7.40;7.20;;;15.70;99.90;;;;;;5101789;27;20463;-67
2023/06/09 03:28:18;;;;;;;8.03;7.73;;;15.60;99.90;;;;;;5091124;27;20497;-67
2023/06/09 03:30:46;;;;;;;8.03;7.73;;;15.60;99.90;;;;;;5116231;27;20567;-66
2023/06/09 03:33:14;;;;;;;8.10;7.80;;;15.70;99.90;;;;;;5106610;27;20466;-67
2023/06/09 03:35:41;;;;;;;8.70;8.40;;;15.70;99.90;;;;;;5121578;27;21066;-67
2023/06/09 03:38:08;;;;;;;9.07;8.77;;;15.60;99.90;;;;;;5112462;27;20470;-67
2023/06/09 03:40:36;;;;;;;8.70;8.40;;;15.60;99.90;;;;;;5093649;27;20500;-69
2023/06/09 03:43:04;;;;;;;9.50;9.20;;;15.50;99.90;;;;;;5104763;27;20462;-68
2023/06/09 03:45:31;;;;;;;9.13;8.83;;;15.50;99.90;;;;;;5122109;27;20510;-67
2023/06/09 03:47:58;;;;;;;9.47;9.17;;;15.50;99.90;;;;;;5109205;28;20476;-68
2023/06/09 03:50:25;;;;;;;10.27;9.77;;;15.50;99.90;;;;;;5104130;27;20463;-68
2023/06/09 03:52:52;;;;;;;10.90;10.50;;;15.50;99.90;;;;;;5098050;28;20484;-68
2023/06/09 03:55:22;;;;;;;8.90;8.60;;;15.50;99.90;;;;;;5107744;27;20461;-68
2023/06/09 03:57:48;;;;;;;8.83;8.53;;;15.50;99.90;;;;;;5096339;27;20476;-68
2023/06/09 04:00:19;;;;;;;9.23;8.93;;;15.60;99.90;;;;;;5098908;27;20477;-69
2023/06/09 04:02:48;;;;;;;9.43;9.13;;;15.50;99.90;;;;;;5106262;27;20554;-68
2023/06/09 04:05:15;;;;;;;9.53;9.23;;;15.50;99.90;;;;;;5099248;27;20461;-68
2023/06/09 04:07:42;;;;;;;9.40;9.10;;;15.50;99.90;;;;;;5096962;27;20567;-68
2023/06/09 04:10:10;;;;;;;9.40;9.10;;;15.50;99.90;;;;;;5118517;27;20548;-69
2023/06/09 04:12:37;;;;;;;9.80;9.50;;;15.50;99.90;;;;;;5115099;27;20452;-69
2023/06/09 04:15:06;;;;;;;9.37;9.07;;;15.50;99.90;;;;;;5094866;27;20457;-69
2023/06/09 04:17:36;;;;;;;10.60;10.10;;;15.60;99.90;;;;;;5092878;28;20549;-69
2023/06/09 04:20:07;;;;;;;9.37;9.07;;;15.60;99.90;;;;;;5107287;28;20457;-68
2023/06/09 04:22:33;;;;;;;10.60;10.20;;;15.70;99.90;;;;;;5122455;27;20467;-69
2023/06/09 04:25:01;;;;;;;10.20;9.80;;;15.70;99.90;;;;;;5118290;27;20922;-68
2023/06/09 04:27:29;;;;;;;8.90;8.60;;;15.80;99.90;;;;;;5106156;28;20752;-69
2023/06/09 04:29:57;;;;;;;9.37;8.97;;;15.90;99.90;;;;;;5096736;28;21050;-68
2023/06/09 04:32:25;;;;;;;8.37;8.07;;;15.90;99.90;;;;;;5097041;28;20548;-70
2023/06/09 04:34:58;;;;;;;7.70;7.50;;;16.10;99.90;;;;;;5119741;28;20477;-68
2023/06/09 04:37:25;;;;;;;8.10;7.80;;;16.30;99.90;;;;;;5115559;28;20472;-69
2023/06/09 04:39:52;;;;;;;8.90;8.50;;;16.30;99.90;;;;;;5115260;28;20568;-68
2023/06/09 04:42:20;;;;;;;7.40;7.20;;;16.30;99.90;;;;;;5104760;28;20481;-67
2023/06/09 04:44:49;;;;;;;8.30;8.00;;;16.40;99.90;;;;;;5102677;28;20780;-68
2023/06/09 04:47:18;;;;;;;7.40;7.20;;;16.50;99.90;;;;;;5115048;28;20453;-67
2023/06/09 04:49:46;;;;;;;8.20;7.90;;;16.70;99.90;;;;;;5122398;27;20489;-68
2023/06/09 04:52:17;;;;;;;8.10;7.80;;;16.80;99.90;;;;;;5099792;27;20465;-67
2023/06/09 04:54:44;;;;;;;7.57;7.37;;;16.90;99.90;;;;;;5096850;27;20458;-68
2023/06/09 04:57:11;;;;;;;8.03;7.73;;;17.00;99.90;;;;;;5106961;27;20450;-68
2023/06/09 04:59:40;;;;;;;8.03;7.73;;;17.10;99.90;;;;;;5104244;27;20458;-67
2023/06/09 05:02:07;;;;;;;8.70;8.40;;;17.20;99.90;;;;;;5100581;27;20460;-68
2023/06/09 05:04:34;;;;;;;8.43;8.13;;;17.30;99.90;;;;;;5101150;27;20558;-69
2023/06/09 05:07:03;;;;;;;8.90;8.60;;;17.40;99.90;;;;;;5104937;27;20851;-68
2023/06/09 05:09:32;;;;;;;9.30;8.90;;;17.50;99.90;;;;;;5125416;27;20801;-69
2023/06/09 05:11:58;;;;;;;9.90;9.50;;;17.70;99.90;;;;;;5095715;27;20461;-68
2023/06/09 05:14:25;;;;;;;9.73;9.33;;;17.80;99.90;;;;;;5116329;27;20460;-69
2023/06/09 05:16:53;;;;;;;9.33;9.03;;;18.00;99.90;;;;;;5103418;27;21097;-68
2023/06/09 05:19:21;;;;;;;9.90;9.50;;;18.10;99.90;;;;;;5095235;27;20454;-67
2023/06/09 05:21:47;;;;;;;10.10;9.70;;;18.20;99.90;;;;;;5112236;27;20468;-68
2023/06/09 05:24:15;;;;;;;10.20;9.80;;;18.20;99.90;;;;;;5102069;27;20517;-68
2023/06/09 05:26:45;;;;;;;10.20;9.80;;;18.30;99.90;;;;;;5118037;27;20470;-68
2023/06/09 05:29:12;;;;;;;10.63;10.23;;;18.50;99.90;;;;;;5125050;27;20841;-68
2023/06/09 05:31:38;;;;;;;9.93;9.60;;;18.60;99.90;;;;;;5114981;27;20456;-67
2023/06/09 05:34:07;;;;;;;10.53;10.13;;;18.60;99.90;;;;;;5104157;27;20461;-68
2023/06/09 05:36:36;;;;;;;10.90;10.50;;;18.70;99.90;;;;;;5100586;27;20838;-67
2023/06/09 05:39:06;;;;;;;11.00;10.60;;;18.80;99.90;;;;;;5099438;27;20469;-67
2023/06/09 05:41:33;;;;;;;11.20;10.80;;;18.80;99.90;;;;;;5124042;27;20464;-68
2023/06/09 05:44:01;;;;;;;11.43;11.03;;;18.90;99.90;;;;;;5113508;27;20512;-68
2023/06/09 05:46:27;;;;;;;11.63;11.17;;;19.00;99.90;;;;;;5099719;27;20544;-69
2023/06/09 05:48:54;;;;;;;13.23;12.40;;;19.10;99.90;;;;;;5096762;27;21180;-68
2023/06/09 05:51:21;;;;;;;11.40;11.00;;;19.20;99.90;;;;;;5092872;27;20457;-67
2023/06/09 05:53:48;;;;;;;11.87;11.37;;;19.30;99.90;;;;;;5110423;27;20479;-68
2023/06/09 05:56:16;;;;;;;11.90;11.40;;;19.30;99.90;;;;;;5115969;27;20457;-67
2023/06/09 05:58:44;;;;;;;11.50;11.10;;;19.40;99.90;;;;;;5124611;27;20444;-68
2023/06/09 06:01:15;;;;;;;13.10;12.60;;;19.60;99.90;;;;;;5100481;28;20506;-68
2023/06/09 06:03:42;;;;;;;11.50;11.10;;;19.70;99.90;;;;;;5110196;27;20462;-68
2023/06/09 06:06:10;;;;;;;11.60;11.20;;;19.90;99.90;;;;;;5095580;27;20473;-67
2023/06/09 06:08:39;;;;;;;11.97;11.47;;;20.00;99.90;;;;;;5101018;27;20480;-67
2023/06/09 06:11:06;;;;;;;12.40;11.90;;;20.10;99.90;;;;;;5105455;27;20484;-68
2023/06/09 06:13:33;;;;;;;12.20;11.70;;;19.90;99.90;;;;;;5109654;27;20449;-67
2023/06/09 06:16:00;;;;;;;14.20;13.57;;;19.90;99.90;;;;;;5116386;27;21061;-68
2023/06/09 06:18:29;;;;;;;13.00;12.50;;;19.90;99.90;;;;;;5098807;27;21178;-68
2023/06/09 06:20:56;;;;;;;12.67;12.17;;;19.90;99.90;;;;;;5103427;27;20518;-67
2023/06/09 06:23:23;;;;;;;12.10;11.60;;;20.00;99.90;;;;;;5093188;27;20470;-67
2023/06/09 06:25:50;;;;;;;11.57;11.17;;;20.20;99.90;;;;;;5102315;27;20529;-69
2023/06/09 06:28:17;;;;;;;12.50;12.00;;;20.40;99.90;;;;;;5099797;27;20466;-68
2023/06/09 06:30:44;;;;;;;12.90;12.40;;;20.30;99.90;;;;;;5107460;27;20466;-68
2023/06/09 06:33:11;;;;;;;12.50;12.00;;;20.30;99.90;;;;;;5114749;27;20457;-69
2023/06/09 06:35:40;;;;;;;12.60;12.10;;;20.50;99.90;;;;;;5100768;27;21150;-67
2023/06/09 06:38:06;;;;;;;12.80;12.30;;;20.70;99.90;;;;;;5101281;27;20807;-68
2023/06/09 06:40:34;;;;;;;12.90;12.30;;;20.70;99.90;;;;;;5109003;27;20461;-68
2023/06/09 06:43:01;;;;;;;12.17;11.67;;;20.90;99.90;;;;;;5099694;27;20858;-68
2023/06/09 06:45:30;;;;;;;13.03;12.53;;;21.00;99.90;;;;;;5115708;27;20540;-68
2023/06/09 06:47:57;;;;;;;13.10;12.60;;;21.10;99.90;;;;;;5103501;27;20466;-67
2023/06/09 06:50:25;;;;;;;12.90;12.40;;;21.20;99.90;;;;;;5118086;27;20849;-68
2023/06/09 06:52:53;;;;;;;12.63;12.13;;;21.30;99.90;;;;;;5111286;27;20462;-69
2023/06/09 06:55:20;;;;;;;16.00;15.30;;;21.40;99.90;;;;;;5100512;27;20468;-69
2023/06/09 06:57:47;;;;;;;13.20;12.70;;;21.50;99.90;;;;;;5101872;27;20490;-68
2023/06/09 07:00:15;;;;;;;13.37;12.87;;;21.70;99.90;;;;;;5101674;27;20466;-68
2023/06/09 07:02:43;;;;;;;13.33;12.83;;;21.70;99.90;;;;;;5114053;27;20559;-68
2023/06/09 07:05:10;;;;;;;14.80;14.10;;;21.80;99.90;;;;;;5125480;27;20958;-67
2023/06/09 07:07:38;;;;;;;13.20;12.70;;;22.00;99.90;;;;;;5102733;27;20487;-68
2023/06/09 07:10:08;;;;;;;13.80;13.23;;;22.20;99.90;;;;;;5102827;27;20489;-67
2023/06/09 07:12:35;;;;;;;14.03;13.43;;;22.50;99.90;;;;;;5102841;27;20616;-68
2023/06/09 07:15:02;;;;;;;14.20;13.60;;;22.70;99.90;;;;;;5101205;27;20462;-69
2023/06/09 07:17:29;;;;;;;14.00;13.40;;;22.80;99.90;;;;;;5102072;27;20458;-68
2023/06/09 07:19:56;;;;;;;14.17;13.57;;;22.90;99.90;;;;;;5106381;27;20502;-69
2023/06/09 07:22:24;;;;;;;14.40;13.80;;;23.30;99.90;;;;;;5102282;27;20463;-68
2023/06/09 07:24:50;;;;;;;14.60;14.00;;;23.20;99.90;;;;;;5101320;27;20947;-67
2023/06/09 07:27:19;;;;;;;15.03;14.33;;;23.30;99.90;;;;;;5104516;27;20449;-68
2023/06/09 07:29:46;;;;;;;16.03;15.30;;;23.50;99.90;;;;;;5098192;27;20482;-68
2023/06/09 07:32:14;;;;;;;15.03;14.43;;;23.60;99.90;;;;;;5112205;27;20507;-67
2023/06/09 07:34:42;;;;;;;14.73;14.13;;;23.80;99.90;;;;;;5101783;27;20489;-69
2023/06/09 07:37:09;;;;;;;14.93;14.33;;;24.10;99.90;;;;;;5107060;27;20684;-67
2023/06/09 07:39:37;;;;;;;16.23;15.33;;;24.30;99.90;;;;;;5111715;27;20472;-69
2023/06/09 07:42:05;;;;;;;15.03;14.43;;;24.30;99.90;;;;;;5106079;28;20541;-67
2023/06/09 07:44:35;;;;;;;14.73;14.13;;;24.50;99.90;;;;;;5103795;27;20467;-68
2023/06/09 07:47:04;;;;;;;14.70;14.10;;;24.70;99.90;;;;;;5090355;27;20556;-67
2023/06/09 07:49:31;;;;;;;14.73;14.13;;;25.10;99.90;;;;;;5095027;27;20478;-67
2023/06/09 07:51:58;;;;;;;15.17;14.57;;;25.20;99.90;;;;;;5102630;27;20457;-67
2023/06/09 07:54:25;;;;;;;14.90;14.30;;;25.30;99.90;;;;;;5096369;27;21007;-68
2023/06/09 07:56:52;;;;;;;15.43;14.73;;;25.60;99.90;;;;;;5107667;27;20468;-67
2023/06/09 07:59:20;;;;;;;15.50;14.80;;;25.50;99.90;;;;;;5104005;27;21011;-67
2023/06/09 08:01:50;;;;;;;15.20;14.60;;;25.60;99.90;;;;;;5105438;27;20465;-68
2023/06/09 08:04:17;;;;;;;15.80;15.10;;;25.80;99.90;;;;;;5105155;27;20461;-68
2023/06/09 08:06:46;;;;;;;15.67;15.03;;;26.50;99.90;;;;;;5093107;27;20461;-67
2023/06/09 08:09:13;;;;;;;15.10;14.50;;;27.20;99.90;;;;;;5093083;28;20489;-69
2023/06/09 08:11:40;;;;;;;15.97;15.27;;;27.40;99.90;;;;;;5099898;28;20759;-67
2023/06/09 08:14:07;;;;;;;15.00;14.40;;;28.00;99.90;;;;;;5102296;27;20510;-67
2023/06/09 08:16:35;;;;;;;15.37;14.77;;;28.40;99.90;;;;;;5108973;27;20485;-68
2023/06/09 08:19:03;;;;;;;16.40;15.70;;;28.70;99.90;;;;;;5097273;28;20947;-68
2023/06/09 08:21:30;;;;;;;16.97;16.07;;;29.00;99.90;;;;;;5100073;27;20461;-68
2023/06/09 08:23:57;;;;;;;16.33;15.63;;;29.70;99.90;;;;;;5091990;28;20466;-67
2023/06/09 08:26:24;;;;;;;16.30;15.60;;;29.70;99.90;;;;;;5112451;28;20482;-68
2023/06/09 08:28:52;;;;;;;17.20;16.30;;;29.60;99.90;;;;;;5104564;27;20975;-68
2023/06/09 08:31:18;;;;;;;16.77;16.07;;;30.10;99.90;;;;;;5108167;28;20766;-67
2023/06/09 08:33:47;;;;;;;17.43;16.53;;;30.60;99.90;;;;;;5122834;28;20451;-67
2023/06/09 08:36:15;;;;;;;16.13;15.43;;;30.40;99.90;;;;;;5098330;28;20998;-68
2023/06/09 08:38:42;;;;;;;16.73;15.93;;;30.20;99.60;;;;;;5102414;28;20910;-68
2023/06/09 08:41:10;;;;;;;16.70;15.90;;;30.90;99.30;;;;;;5100923;28;20488;-67
2023/06/09 08:43:37;;;;;;;15.93;15.23;;;30.60;98.80;;;;;;5101973;28;20454;-67
2023/06/09 08:46:06;;;;;;;15.07;14.47;;;30.90;98.80;;;;;;5108839;28;20449;-69
2023/06/09 08:48:33;;;;;;;14.63;14.03;;;30.90;97.90;;;;;;5096636;28;20940;-66
2023/06/09 08:51:01;;;;;;;15.50;14.90;;;30.90;96.00;;;;;;5087435;28;20572;-67
2023/06/09 08:53:31;;;;;;;16.53;15.73;;;30.90;96.30;;;;;;5096035;28;20994;-67
2023/06/09 08:56:01;;;;;;;15.97;15.30;;;30.40;96.40;;;;;;5090853;28;20492;-68
2023/06/09 08:58:28;;;;;;;15.60;15.00;;;30.70;95.60;;;;;;5088876;28;20569;-66
2023/06/09 09:01:20;;;;;;;15.20;14.60;;;31.30;95.30;;;;;;5103730;28;20452;-68
2023/06/09 09:04:19;;;;;;;16.10;15.40;;;31.80;95.00;;;;;;5098218;28;20449;-68
2023/06/09 09:06:46;;;;;;;15.97;15.30;;;31.70;92.80;;;;;;5095821;28;21065;-67
2023/06/09 09:09:15;;;;;;;14.03;13.53;;;32.70;93.60;;;;;;5089942;28;20477;-68
2023/06/09 09:11:45;;;;;;;15.00;14.40;;;32.30;93.70;;;;;;5102529;28;20450;-69
2023/06/09 09:14:13;;;;;;;15.23;14.63;;;32.60;92.20;;;;;;5100006;28;20480;-69
2023/06/09 09:16:40;;;;;;;15.20;14.60;;;33.10;90.60;;;;;;5096637;28;20596;-68
2023/06/09 09:19:08;;;;;;;14.50;13.90;;;32.30;91.80;;;;;;5095899;28;20464;-68
2023/06/09 09:21:37;;;;;;;15.20;14.57;;;33.10;91.60;;;;;;5092284;28;20464;-67
2023/06/09 09:24:06;;;;;;;16.90;16.00;;;33.40;90.10;;;;;;5105279;28;20950;-68
2023/06/09 09:26:34;;;;;;;14.87;14.27;;;33.60;89.30;;;;;;5095227;28;21109;-68
2023/06/09 09:29:04;;;;;;;16.37;15.63;;;34.30;84.40;;;;;;5114946;28;20494;-65
2023/06/09 09:31:33;;;;;;;16.80;16.00;;;33.60;85.40;;;;;;5093431;28;20981;-67
2023/06/09 09:34:00;;;;;;;16.00;15.30;;;33.20;84.60;;;;;;5104863;28;20475;-67
2023/06/09 09:36:27;;;;;;;17.40;16.60;;;33.70;83.70;;;;;;5118280;27;20587;-67
2023/06/09 09:38:56;;;;;;;16.53;15.83;;;34.00;81.00;;;;;;5110707;27;20452;-68
2023/06/09 09:41:23;;;;;;;15.70;15.10;;;33.40;82.10;;;;;;5112446;27;20866;-67
2023/06/09 09:43:57;;;;;;;15.40;14.80;;;33.60;81.80;;;;;;5108716;27;20485;-67
2023/06/09 09:46:24;;;;;;;15.80;15.20;;;33.80;79.20;;;;;;5102212;27;20529;-67
2023/06/09 09:48:54;;;;;;;15.80;15.20;;;34.10;77.60;;;;;;5094263;27;20453;-67
2023/06/09 09:51:21;;;;;;;14.63;14.03;;;33.00;78.20;;;;;;5096753;27;21059;-67
2023/06/09 09:53:51;;;;;;;15.20;14.60;;;33.00;78.80;;;;;;5099224;28;20445;-67
2023/06/09 09:56:22;;;;;;;14.97;14.37;;;33.50;79.00;;;;;;5100789;27;20543;-67
2023/06/09 09:58:53;;;;;;;14.60;14.00;;;34.20;79.40;;;;;;5106224;27;20544;-65
2023/06/09 10:01:24;;;;;;;14.67;14.10;;;35.10;77.40;;;;;;5112454;27;20552;-67
2023/06/09 10:03:53;;;;;;;15.13;14.53;;;35.70;76.10;;;;;;5100316;27;20474;-67
2023/06/09 10:06:27;;;;;;;15.17;14.57;;;36.50;73.30;;;;;;5115845;27;20878;-68
2023/06/09 10:08:55;;;;;;;14.90;14.30;;;36.60;71.60;;;;;;5099968;27;20462;-67
2023/06/09 10:11:23;;;;;;;16.43;15.63;;;36.20;70.90;;;;;;5106308;27;20520;-68
2023/06/09 10:13:51;;;;;;;15.20;14.60;;;35.90;69.90;;;;;;5115386;27;20559;-67
2023/06/09 10:16:21;;;;;;;16.10;15.40;;;36.10;69.60;;;;;;5128233;27;20552;-66
2023/06/09 10:18:51;;;;;;;15.57;14.97;;;35.20;66.90;;;;;;5102001;27;21015;-69
2023/06/09 10:21:20;;;;;;;14.60;14.00;;;35.00;68.70;;;;;;5122171;27;21479;-67
2023/06/09 10:23:49;;;;;;;14.87;14.27;;;35.30;66.70;;;;;;5103141;27;20808;-66
2023/06/09 10:26:17;;;;;;;15.10;14.50;;;35.30;68.40;;;;;;5102095;27;20465;-68
2023/06/09 10:28:44;;;;;;;14.00;13.50;;;35.80;69.70;;;;;;5113822;27;20450;-68
2023/06/09 10:31:13;;;;;;;14.20;13.70;;;36.30;68.10;;;;;;5106742;27;20850;-65
2023/06/09 10:33:45;;;;;;;15.23;14.53;;;36.10;65.60;;;;;;5113953;27;20460;-64
2023/06/09 10:36:14;;;;;;;14.90;14.30;;;35.50;64.20;;;;;;5122177;27;20868;-65
2023/06/09 10:38:42;;;;;;;15.87;15.13;;;35.30;65.40;;;;;;5101825;27;20457;-66
2023/06/09 10:41:15;;;;;;;14.43;13.87;;;35.20;65.70;;;;;;5119025;27;20463;-68
2023/06/09 10:43:59;;;;;;;14.63;14.03;;;35.80;66.10;;;;;;5109521;27;20806;-67
2023/06/09 10:46:41;;;;;;;15.20;14.60;;;35.00;66.20;;;;;;5107376;27;20518;-68
2023/06/09 10:49:08;;;;;;;13.93;13.43;;;35.50;64.70;;;;;;5093804;28;20899;-67
2023/06/09 10:51:41;;;;;;;14.80;14.20;;;35.50;64.40;;;;;;5108928;27;20680;-68
2023/06/09 10:54:24;;;;;;;13.87;13.37;;;35.00;64.20;;;;;;5091110;27;20511;-67
2023/06/09 10:56:53;;;;;;;15.23;14.63;;;35.70;65.50;;;;;;5109352;27;20493;-65
2023/06/09 11:00:15;;;;;;;17.00;15.87;;;35.30;64.00;;;;;;5110021;27;20457;-68
2023/06/09 11:02:45;;;;;;;13.83;13.33;;;34.70;64.70;;;;;;5107937;27;20461;-67
2023/06/09 11:05:12;;;;;;;14.27;13.77;;;34.90;67.50;;;;;;5102347;27;20837;-66
2023/06/09 11:08:03;;;;;;;14.80;14.20;;;35.00;66.30;;;;;;5112339;27;20487;-67
2023/06/09 11:10:30;;;;;;;16.23;15.43;;;35.60;64.50;;;;;;5094533;27;20493;-68
2023/06/09 11:12:59;;;;;;;14.17;13.67;;;36.00;65.20;;;;;;5098941;27;20465;-67
2023/06/09 11:15:57;;;;;;;14.33;13.73;;;36.50;62.90;;;;;;5102932;27;20480;-68
2023/06/09 11:18:24;;;;;;;14.37;13.87;;;36.70;62.20;;;;;;5095745;27;20516;-67
2023/06/09 11:21:10;;;;;;;14.80;14.20;;;37.10;59.90;;;;;;5104904;27;20532;-66
2023/06/09 11:24:03;;;;;;;14.60;14.00;;;38.00;58.30;;;;;;5103036;27;20461;-69
2023/06/09 11:26:31;;;;;;;14.30;13.80;;;37.90;57.30;;;;;;5102433;27;20547;-69
2023/06/09 11:28:59;;;;;;;14.13;13.63;;;37.30;56.90;;;;;;5113738;27;20536;-67
2023/06/09 11:31:27;;;;;;;14.27;13.70;;;37.60;57.70;;;;;;5096140;27;20492;-69
2023/06/09 11:33:57;;;;;;;14.60;13.80;;;37.90;56.10;;;;;;5097818;27;20976;-67
2023/06/09 11:36:27;;;;;;;13.60;13.10;;;37.80;56.40;;;;;;5117588;27;20480;-69
2023/06/09 11:39:03;;;;;;;14.60;14.00;;;38.30;56.80;;;;;;5097441;27;20979;-68
2023/06/09 11:41:31;;;;;;;14.70;14.07;;;39.10;55.30;;;;;;5108394;27;20457;-69
2023/06/09 11:43:57;;;;;;;14.60;14.00;;;38.50;53.80;;;;;;5097909;28;20812;-68
2023/06/09 11:46:25;;;;;;;14.40;13.80;;;38.20;55.20;;;;;;5117745;27;20853;-69
2023/06/09 11:49:07;;;;;;;14.10;13.60;;;38.90;54.40;;;;;;5098593;27;20473;-68
2023/06/09 11:51:56;;;;;;;14.53;13.93;;;38.70;54.20;;;;;;5117454;27;20524;-68
2023/06/09 11:54:44;;;;;;;16.70;16.00;;;38.70;52.20;;;;;;5110824;27;20484;-68
2023/06/09 11:57:15;;;;;;;13.40;12.90;;;38.70;52.40;;;;;;5110824;27;20495;-68
2023/06/09 11:59:42;;;;;;;15.53;14.83;;;38.60;51.80;;;;;;5105413;27;20457;-68
2023/06/09 12:02:11;;;;;;;13.80;13.30;;;38.60;52.20;;;;;;5108570;27;20464;-69
2023/06/09 12:04:41;;;;;;;13.93;13.33;;;37.70;52.90;;;;;;5106098;27;20469;-67
2023/06/09 12:07:12;;;;;;;14.63;14.03;;;37.20;52.30;;;;;;5108481;27;20510;-68
2023/06/09 12:09:42;;;;;;;13.90;13.40;;;37.40;54.00;;;;;;5107753;28;20595;-70
2023/06/09 12:12:09;;;;;;;14.20;13.70;;;38.00;52.40;;;;;;5096443;28;20550;-68
2023/06/09 12:14:38;;;;;;;14.90;14.30;;;38.30;52.50;;;;;;5110540;27;20468;-68
2023/06/09 12:17:05;;;;;;;13.90;13.40;;;38.50;52.60;;;;;;5122471;27;20853;-69
2023/06/09 12:19:34;;;;;;;16.30;15.53;;;38.00;51.80;;;;;;5102688;27;20457;-68
2023/06/09 12:22:03;;;;;;;15.00;14.40;;;38.10;50.90;;;;;;5098155;27;20469;-69
2023/06/09 12:24:31;;;;;;;14.70;14.10;;;38.00;50.50;;;;;;5093999;28;20577;-68
2023/06/09 12:27:10;;;;;;;14.87;14.27;;;37.90;50.70;;;;;;5098982;28;20457;-69
2023/06/09 12:29:38;;;;;;;13.70;13.20;;;38.60;50.10;;;;;;5096715;28;20995;-68
2023/06/09 12:32:09;;;;;;;14.20;13.70;;;38.80;49.00;;;;;;5110465;27;20493;-68
2023/06/09 12:34:36;;;;;;;15.17;14.57;;;39.00;48.60;;;;;;5096460;28;20572;-68
2023/06/09 12:37:07;;;;;;;13.90;13.40;;;39.40;48.40;;;;;;5100645;28;20836;-68
2023/06/09 12:39:34;;;;;;;14.20;13.60;;;39.10;48.00;;;;;;5117965;28;20453;-68
2023/06/09 12:42:13;;;;;;;13.87;13.37;;;39.00;48.20;;;;;;5094936;28;20499;-69
2023/06/09 12:44:40;;;;;;;14.30;13.80;;;39.10;48.50;;;;;;5099982;28;20928;-69
2023/06/09 12:47:16;;;;;;;14.60;14.00;;;39.80;48.00;;;;;;5098278;28;20462;-69